Time;durP1;ratioP1;P1;durP2;ratioP2;P2;SDS_P1;SDS_P2;PMS_P1;PMS_P2;Temp;Humidity;BMP_temperature;BMP_pressure;BME280_temperature;BME280_humidity;BME280_pressure;Samples;Min_cycle;Max_cycle;Signal;HPM_P1;HPM_P2
2023/02/22 00:01:46;;;;;;;63.72;20.95;;;8.40;99.90;;;;;;5088488;28;20040;-78
2023/02/22 00:04:14;;;;;;;63.33;20.83;;;8.50;99.90;;;;;;5057155;28;20040;-78
2023/02/22 00:06:41;;;;;;;62.15;21.15;;;8.50;99.90;;;;;;5055880;28;20131;-78
2023/02/22 00:09:09;;;;;;;66.35;21.20;;;8.40;99.90;;;;;;5055907;28;20158;-78
2023/02/22 00:11:37;;;;;;;64.22;22.65;;;8.50;99.90;;;;;;5071828;28;20153;-78
2023/02/22 00:14:04;;;;;;;57.13;20.67;;;8.50;99.90;;;;;;5088920;28;20516;-78
2023/02/22 00:16:31;;;;;;;65.60;21.92;;;8.40;99.90;;;;;;5075801;28;20118;-79
2023/02/22 00:18:57;;;;;;;60.33;20.77;;;8.50;99.90;;;;;;5092357;28;20135;-78
2023/02/22 00:21:24;;;;;;;68.18;21.38;;;8.40;99.90;;;;;;5108608;28;20036;-79
2023/02/22 00:23:54;;;;;;;65.55;21.45;;;8.40;99.90;;;;;;5045481;28;20053;-78
2023/02/22 00:26:22;;;;;;;60.35;21.27;;;8.40;99.90;;;;;;5032209;28;20049;-77
2023/02/22 00:28:52;;;;;;;58.63;21.40;;;8.40;99.90;;;;;;5032342;28;20048;-76
2023/02/22 00:31:20;;;;;;;56.40;21.23;;;8.40;99.90;;;;;;5048426;28;20111;-76
2023/02/22 00:33:46;;;;;;;57.08;20.77;;;8.40;99.90;;;;;;5065248;28;20042;-76
2023/02/22 00:36:14;;;;;;;61.17;21.40;;;8.40;99.90;;;;;;5032337;28;20107;-76
2023/02/22 00:38:41;;;;;;;58.90;21.25;;;8.40;99.90;;;;;;5048636;28;20072;-76
2023/02/22 00:41:08;;;;;;;56.83;20.88;;;8.40;99.90;;;;;;5048220;28;20046;-76
2023/02/22 00:43:35;;;;;;;70.43;22.88;;;8.40;99.90;;;;;;5048324;28;20048;-76
2023/02/22 00:46:02;;;;;;;58.38;20.27;;;8.40;99.90;;;;;;5040731;28;20040;-76
2023/02/22 00:48:29;;;;;;;63.80;22.35;;;8.40;99.90;;;;;;5052297;28;20087;-76
2023/02/22 00:50:56;;;;;;;55.30;21.88;;;8.40;99.90;;;;;;5051737;28;20079;-76
2023/02/22 00:53:24;;;;;;;58.17;20.50;;;8.40;99.90;;;;;;5035586;28;20041;-77
2023/02/22 00:55:52;;;;;;;57.53;20.33;;;8.40;99.90;;;;;;5068332;28;20044;-76
2023/02/22 00:58:19;;;;;;;58.95;21.20;;;8.40;99.90;;;;;;5068439;28;20048;-76
2023/02/22 01:00:47;;;;;;;53.90;19.83;;;8.30;99.90;;;;;;5067990;28;20033;-76
2023/02/22 01:03:16;;;;;;;53.25;20.58;;;8.30;99.90;;;;;;5068281;28;20044;-76
2023/02/22 01:05:43;;;;;;;59.78;20.33;;;8.40;99.90;;;;;;5067270;28;20048;-76
2023/02/22 01:08:12;;;;;;;52.92;19.63;;;8.30;99.90;;;;;;5067461;28;20068;-76
2023/02/22 01:10:39;;;;;;;46.03;19.08;;;8.30;99.90;;;;;;5084691;28;20036;-76
2023/02/22 01:13:08;;;;;;;48.13;19.15;;;8.30;99.90;;;;;;5068095;28;20493;-76
2023/02/22 01:15:37;;;;;;;41.50;19.00;;;8.30;99.90;;;;;;5056459;28;20045;-76
2023/02/22 01:18:05;;;;;;;46.13;17.48;;;8.30;99.90;;;;;;5068555;28;20042;-76
2023/02/22 01:20:32;;;;;;;45.63;17.38;;;8.30;99.90;;;;;;5051590;28;20457;-76
2023/02/22 01:23:02;;;;;;;51.08;18.67;;;8.30;99.90;;;;;;5051501;28;20192;-76
2023/02/22 01:25:30;;;;;;;42.38;18.45;;;8.30;99.90;;;;;;5058080;28;20068;-76
2023/02/22 01:27:58;;;;;;;46.92;18.88;;;8.30;99.90;;;;;;5071868;28;20037;-76
2023/02/22 01:30:28;;;;;;;50.75;18.77;;;8.30;99.90;;;;;;5071267;28;20037;-76
2023/02/22 01:32:55;;;;;;;44.05;18.17;;;8.30;99.90;;;;;;5071407;28;20083;-76
2023/02/22 01:35:26;;;;;;;43.35;18.83;;;8.30;99.90;;;;;;5087009;28;20066;-76
2023/02/22 01:37:53;;;;;;;51.70;18.17;;;8.20;99.90;;;;;;5051156;28;20037;-76
2023/02/22 01:40:32;;;;;;;47.97;19.95;;;8.30;99.90;;;;;;5051409;28;20103;-76
2023/02/22 01:43:02;;;;;;;45.90;19.25;;;8.20;99.90;;;;;;5051390;28;20060;-76
2023/02/22 01:45:29;;;;;;;51.97;20.63;;;8.20;99.90;;;;;;5051241;28;20130;-76
2023/02/22 01:48:12;;;;;;;51.80;19.17;;;8.30;99.90;;;;;;5083694;28;20061;-76
2023/02/22 01:50:46;;;;;;;43.03;18.80;;;8.20;99.90;;;;;;5067385;28;20038;-76
2023/02/22 01:53:16;;;;;;;45.95;18.38;;;8.20;99.90;;;;;;5051388;28;20374;-76
2023/02/22 01:55:44;;;;;;;48.55;19.05;;;8.20;99.90;;;;;;5067750;28;20033;-76
2023/02/22 01:58:13;;;;;;;44.47;18.77;;;8.20;99.90;;;;;;5083262;28;20041;-76
2023/02/22 02:00:40;;;;;;;41.42;18.55;;;8.20;99.90;;;;;;5054236;28;20476;-76
2023/02/22 02:03:14;;;;;;;48.05;18.90;;;8.20;99.90;;;;;;5054323;28;20040;-76
2023/02/22 02:05:42;;;;;;;45.47;18.60;;;8.20;99.90;;;;;;5070609;28;20045;-76
2023/02/22 02:08:35;;;;;;;48.47;17.52;;;8.20;99.90;;;;;;5069245;28;20045;-76
2023/02/22 02:11:07;;;;;;;40.30;18.00;;;8.20;99.90;;;;;;5070246;28;20148;-76
2023/02/22 02:13:35;;;;;;;41.63;16.95;;;8.20;99.90;;;;;;5050453;28;20524;-77
2023/02/22 02:16:01;;;;;;;42.35;17.42;;;8.20;99.90;;;;;;5050558;28;20037;-76
2023/02/22 02:18:28;;;;;;;46.45;18.73;;;8.20;99.90;;;;;;5021285;28;20044;-76
2023/02/22 02:21:14;;;;;;;40.28;16.85;;;8.20;99.90;;;;;;5069796;28;20390;-76
2023/02/22 02:24:14;;;;;;;42.80;16.95;;;8.20;99.90;;;;;;5104518;28;20067;-76
2023/02/22 02:27:11;;;;;;;39.13;17.38;;;8.20;99.90;;;;;;5094303;28;20043;-76
2023/02/22 02:29:56;;;;;;;41.17;17.50;;;8.20;99.90;;;;;;5110513;28;20459;-76
2023/02/22 02:32:25;;;;;;;39.25;16.30;;;8.20;99.90;;;;;;5088141;28;20447;-76
2023/02/22 02:35:07;;;;;;;38.67;17.10;;;8.20;99.90;;;;;;5106416;28;20075;-76
2023/02/22 02:37:58;;;;;;;39.55;16.98;;;8.20;99.90;;;;;;5078339;28;20055;-76
2023/02/22 02:40:48;;;;;;;41.28;16.60;;;8.20;99.90;;;;;;5074642;28;20043;-76
2023/02/22 02:43:25;;;;;;;39.45;16.00;;;8.10;99.90;;;;;;5090384;28;20147;-75
2023/02/22 02:46:26;;;;;;;41.55;16.73;;;8.10;99.90;;;;;;5072931;28;20089;-75
2023/02/22 02:48:57;;;;;;;42.85;16.83;;;8.20;99.90;;;;;;5075544;28;20542;-76
2023/02/22 02:51:31;;;;;;;38.40;16.05;;;8.10;99.90;;;;;;5073446;28;20029;-76
2023/02/22 02:53:59;;;;;;;35.90;15.50;;;8.10;99.90;;;;;;5073196;28;20047;-76
2023/02/22 02:56:27;;;;;;;38.42;16.67;;;8.10;99.90;;;;;;5073422;28;20556;-76
2023/02/22 02:58:54;;;;;;;41.70;16.67;;;8.10;99.90;;;;;;5089882;28;20036;-76
2023/02/22 03:01:54;;;;;;;40.85;17.23;;;8.10;99.90;;;;;;5073635;28;20040;-76
2023/02/22 03:04:24;;;;;;;32.78;15.20;;;8.10;99.90;;;;;;5073461;28;20517;-76
2023/02/22 03:07:14;;;;;;;40.03;15.32;;;8.10;99.90;;;;;;5072859;28;20829;-76
2023/02/22 03:09:57;;;;;;;37.97;15.75;;;8.10;99.90;;;;;;5082924;28;20127;-77
2023/02/22 03:12:57;;;;;;;42.67;16.50;;;8.10;99.90;;;;;;5098799;28;20503;-76
2023/02/22 03:15:45;;;;;;;42.20;15.90;;;8.10;99.90;;;;;;5047664;28;20048;-76
2023/02/22 03:18:23;;;;;;;35.20;14.63;;;8.10;99.90;;;;;;5093370;28;20036;-76
2023/02/22 03:21:16;;;;;;;39.70;16.10;;;8.10;99.90;;;;;;5092984;28;20136;-76
2023/02/22 03:23:50;;;;;;;39.47;16.45;;;8.10;99.90;;;;;;5066734;28;20056;-77
2023/02/22 03:26:23;;;;;;;37.78;15.40;;;8.10;99.90;;;;;;5085840;28;20072;-76
2023/02/22 03:28:54;;;;;;;38.35;17.27;;;8.10;99.90;;;;;;5085438;28;20044;-76
2023/02/22 03:31:30;;;;;;;38.72;16.40;;;8.10;99.90;;;;;;5069328;28;20040;-76
2023/02/22 03:34:04;;;;;;;39.63;15.85;;;8.10;99.90;;;;;;5068722;28;20510;-76
2023/02/22 03:36:40;;;;;;;36.30;16.17;;;8.10;99.90;;;;;;5069140;28;20037;-76
2023/02/22 03:39:11;;;;;;;40.88;15.52;;;8.10;99.90;;;;;;5084696;28;20524;-76
2023/02/22 03:41:39;;;;;;;34.00;16.10;;;8.10;99.90;;;;;;5085831;28;20047;-76
2023/02/22 03:44:10;;;;;;;42.17;17.88;;;8.10;99.90;;;;;;5058766;28;20073;-77
2023/02/22 03:46:39;;;;;;;40.15;17.42;;;8.00;99.90;;;;;;5065721;28;20490;-76
2023/02/22 03:49:28;;;;;;;40.72;17.88;;;8.10;99.90;;;;;;5048509;28;20045;-76
2023/02/22 03:51:56;;;;;;;37.92;17.60;;;8.10;99.90;;;;;;5048673;28;20081;-77
2023/02/22 03:54:23;;;;;;;37.97;16.98;;;8.10;99.90;;;;;;5057720;28;20052;-76
2023/02/22 03:56:57;;;;;;;40.78;17.23;;;8.00;99.90;;;;;;5068386;28;20041;-77
2023/02/22 03:59:26;;;;;;;38.75;16.77;;;8.10;99.90;;;;;;5068605;28;20041;-77
2023/02/22 04:01:53;;;;;;;36.83;16.17;;;8.00;99.90;;;;;;5085213;28;20088;-76
2023/02/22 04:04:22;;;;;;;38.35;17.15;;;8.00;99.90;;;;;;5046104;28;20040;-77
2023/02/22 04:06:50;;;;;;;38.90;16.77;;;8.00;99.90;;;;;;5064638;28;20053;-77
2023/02/22 04:09:17;;;;;;;39.75;16.33;;;8.00;99.90;;;;;;5065385;28;20498;-76
2023/02/22 04:11:44;;;;;;;34.92;16.58;;;8.00;99.90;;;;;;5048992;28;20047;-76
2023/02/22 04:14:12;;;;;;;34.70;15.48;;;8.00;99.90;;;;;;5032087;28;20041;-77
2023/02/22 04:16:38;;;;;;;37.08;15.55;;;8.00;99.90;;;;;;5064814;28;20088;-77
2023/02/22 04:19:05;;;;;;;34.63;15.15;;;8.00;99.90;;;;;;5032113;28;20041;-76
2023/02/22 04:21:32;;;;;;;31.70;15.02;;;8.00;99.90;;;;;;5032229;28;20040;-76
2023/02/22 04:23:59;;;;;;;34.65;14.30;;;8.00;99.90;;;;;;5048288;28;20127;-76
2023/02/22 04:26:25;;;;;;;31.02;13.52;;;8.00;99.90;;;;;;5063772;28;20054;-76
2023/02/22 04:28:52;;;;;;;31.80;14.00;;;8.00;99.90;;;;;;5032059;28;20128;-77
2023/02/22 04:31:19;;;;;;;31.02;14.35;;;7.90;99.90;;;;;;5015986;28;20111;-76
2023/02/22 04:33:46;;;;;;;30.48;13.82;;;8.00;99.90;;;;;;5032735;28;20410;-76
2023/02/22 04:36:14;;;;;;;30.65;14.07;;;8.00;99.90;;;;;;5061316;28;20094;-76
2023/02/22 04:38:42;;;;;;;34.60;14.82;;;8.00;99.90;;;;;;5067997;28;20044;-76
2023/02/22 04:41:10;;;;;;;31.80;14.32;;;7.90;99.90;;;;;;5068086;28;20133;-76
2023/02/22 04:43:36;;;;;;;31.23;12.93;;;7.90;99.90;;;;;;5036006;28;20041;-76
2023/02/22 04:46:03;;;;;;;32.70;13.98;;;8.00;99.90;;;;;;5068308;28;20063;-76
2023/02/22 04:48:30;;;;;;;28.67;13.15;;;7.90;99.90;;;;;;5035346;28;20037;-76
2023/02/22 04:50:57;;;;;;;30.27;13.77;;;7.90;99.90;;;;;;5068991;28;20040;-76
2023/02/22 04:53:24;;;;;;;29.60;12.98;;;7.90;99.90;;;;;;5071883;28;20125;-76
2023/02/22 04:55:51;;;;;;;27.70;13.13;;;8.00;99.90;;;;;;5051952;28;20055;-76
2023/02/22 04:58:17;;;;;;;30.40;12.77;;;7.90;99.90;;;;;;5035523;28;20041;-77
2023/02/22 05:00:44;;;;;;;29.42;13.65;;;7.90;99.90;;;;;;5035814;28;20038;-76
2023/02/22 05:03:11;;;;;;;31.50;13.52;;;7.90;99.90;;;;;;5019302;28;20075;-77
2023/02/22 05:05:38;;;;;;;32.40;13.88;;;7.90;99.90;;;;;;5019286;28;20045;-77
2023/02/22 05:08:04;;;;;;;30.55;13.60;;;7.90;99.90;;;;;;5051477;28;20045;-77
2023/02/22 05:10:31;;;;;;;30.35;14.00;;;7.90;99.90;;;;;;5051761;28;20498;-77
2023/02/22 05:12:58;;;;;;;33.45;14.43;;;7.90;99.90;;;;;;5051753;28;20044;-77
2023/02/22 05:15:24;;;;;;;30.05;14.10;;;7.90;99.90;;;;;;5035836;28;20056;-76
2023/02/22 05:17:51;;;;;;;29.65;14.13;;;7.90;99.90;;;;;;5050747;28;20500;-77
2023/02/22 05:20:28;;;;;;;29.73;14.13;;;7.90;99.90;;;;;;5088073;28;20048;-77
2023/02/22 05:22:57;;;;;;;31.67;14.80;;;7.90;99.90;;;;;;5089907;28;20186;-77
2023/02/22 05:25:24;;;;;;;34.17;14.95;;;7.90;99.90;;;;;;5087887;28;20084;-76
2023/02/22 05:27:56;;;;;;;33.10;14.32;;;7.90;99.90;;;;;;5060021;28;20041;-76
2023/02/22 05:30:27;;;;;;;34.63;15.30;;;7.90;99.90;;;;;;5035949;28;20045;-76
2023/02/22 05:32:53;;;;;;;31.67;15.18;;;7.90;99.90;;;;;;5051345;28;20418;-76
2023/02/22 05:35:21;;;;;;;34.03;15.73;;;7.90;99.90;;;;;;5067845;28;20048;-76
2023/02/22 05:37:49;;;;;;;36.63;16.33;;;7.80;99.90;;;;;;5067805;28;20037;-76
2023/02/22 05:40:25;;;;;;;35.50;15.40;;;7.90;99.90;;;;;;5034495;28;20041;-76
2023/02/22 05:42:52;;;;;;;37.70;15.18;;;7.80;99.90;;;;;;5067630;28;20057;-76
2023/02/22 05:45:22;;;;;;;37.00;15.57;;;7.90;99.90;;;;;;5051241;28;20045;-76
2023/02/22 05:47:50;;;;;;;34.03;15.95;;;7.80;99.90;;;;;;5035146;28;20048;-76
2023/02/22 05:50:18;;;;;;;34.65;16.02;;;7.90;99.90;;;;;;5034744;28;20045;-77
2023/02/22 05:52:47;;;;;;;36.00;15.68;;;7.80;99.90;;;;;;5055790;28;20045;-76
2023/02/22 05:55:16;;;;;;;35.50;15.27;;;7.80;99.90;;;;;;5070762;28;20094;-77
2023/02/22 05:57:42;;;;;;;33.42;14.43;;;7.80;99.90;;;;;;5071129;28;20048;-76
2023/02/22 06:00:15;;;;;;;33.47;13.85;;;7.80;99.90;;;;;;5054245;28;20485;-77
2023/02/22 06:02:42;;;;;;;30.75;13.57;;;7.80;99.90;;;;;;5054466;28;20068;-76
2023/02/22 06:05:08;;;;;;;32.15;13.52;;;7.80;99.90;;;;;;5054466;28;20099;-76
2023/02/22 06:07:35;;;;;;;31.42;13.23;;;7.80;99.90;;;;;;5070803;28;20056;-76
2023/02/22 06:10:02;;;;;;;32.63;12.30;;;7.80;99.90;;;;;;5071092;28;20472;-76
2023/02/22 06:12:29;;;;;;;32.15;13.50;;;7.80;99.90;;;;;;5070059;28;20044;-77
2023/02/22 06:14:56;;;;;;;34.38;14.57;;;7.80;99.90;;;;;;5070555;28;20102;-76
2023/02/22 06:17:22;;;;;;;32.33;13.25;;;7.80;99.90;;;;;;5054368;28;20044;-76
2023/02/22 06:19:49;;;;;;;34.45;14.02;;;7.80;99.90;;;;;;5054558;28;20076;-76
2023/02/22 06:22:19;;;;;;;33.03;13.52;;;7.80;99.90;;;;;;5055671;28;20053;-77
2023/02/22 06:24:45;;;;;;;34.08;14.00;;;7.80;99.90;;;;;;5108926;28;20057;-76
2023/02/22 06:27:12;;;;;;;32.97;13.25;;;7.80;99.90;;;;;;5073709;28;20036;-76
2023/02/22 06:29:43;;;;;;;34.78;13.82;;;7.80;99.90;;;;;;5090529;28;20048;-77
2023/02/22 06:32:10;;;;;;;32.42;13.93;;;7.80;99.90;;;;;;5073478;28;20047;-77
2023/02/22 06:34:36;;;;;;;34.58;13.70;;;7.90;99.90;;;;;;5053633;28;20485;-77
2023/02/22 06:37:03;;;;;;;30.02;12.40;;;7.80;99.90;;;;;;5073688;28;20105;-76
2023/02/22 06:39:30;;;;;;;30.52;13.77;;;7.80;99.90;;;;;;5056584;28;20098;-76
2023/02/22 06:41:57;;;;;;;36.70;13.93;;;7.80;99.90;;;;;;5056442;28;20039;-76
2023/02/22 06:44:24;;;;;;;31.30;13.65;;;7.80;99.90;;;;;;5040007;28;20124;-76
2023/02/22 06:46:50;;;;;;;35.85;14.50;;;7.80;99.90;;;;;;5056738;28;20099;-76
2023/02/22 06:49:18;;;;;;;39.35;16.33;;;7.80;99.90;;;;;;5073369;28;20433;-76
2023/02/22 06:51:46;;;;;;;44.78;16.88;;;7.80;99.90;;;;;;5057186;28;20037;-77
2023/02/22 06:54:13;;;;;;;44.30;16.48;;;7.80;99.90;;;;;;5089349;28;20090;-76
2023/02/22 06:56:40;;;;;;;43.53;15.95;;;7.70;99.90;;;;;;5081999;28;20090;-77
2023/02/22 06:59:07;;;;;;;41.50;16.38;;;7.80;99.90;;;;;;5086251;28;20469;-76
2023/02/22 07:01:34;;;;;;;42.60;16.58;;;7.70;99.90;;;;;;5076694;28;20039;-76
2023/02/22 07:04:01;;;;;;;46.78;17.63;;;7.80;99.90;;;;;;5093600;28;20046;-77
2023/02/22 07:06:27;;;;;;;48.05;17.85;;;7.80;99.90;;;;;;5080132;28;20556;-76
2023/02/22 07:08:54;;;;;;;41.20;16.48;;;7.80;99.90;;;;;;5089934;28;20055;-76
2023/02/22 07:11:21;;;;;;;43.80;16.52;;;7.80;99.90;;;;;;5073925;28;20103;-76
2023/02/22 07:13:48;;;;;;;44.35;17.15;;;7.80;99.90;;;;;;5085376;28;20123;-76
2023/02/22 07:16:14;;;;;;;38.65;15.45;;;7.90;99.90;;;;;;5075106;28;20496;-77
2023/02/22 07:18:41;;;;;;;37.83;16.08;;;7.80;99.90;;;;;;5079085;28;20508;-76
2023/02/22 07:21:08;;;;;;;44.10;17.35;;;7.90;99.90;;;;;;5093297;28;20047;-76
2023/02/22 07:23:34;;;;;;;46.80;17.83;;;7.90;99.90;;;;;;5072357;28;20421;-76
2023/02/22 07:26:04;;;;;;;44.17;17.58;;;7.90;99.90;;;;;;5081014;28;20094;-76
2023/02/22 07:28:30;;;;;;;40.88;17.42;;;7.90;99.90;;;;;;5094128;28;20060;-76
2023/02/22 07:30:57;;;;;;;49.67;19.17;;;7.90;99.90;;;;;;5072508;28;20041;-76
2023/02/22 07:33:25;;;;;;;45.33;17.80;;;7.90;99.90;;;;;;5055745;28;20556;-76
2023/02/22 07:35:52;;;;;;;56.08;20.10;;;8.00;99.90;;;;;;5072811;28;20128;-76
2023/02/22 07:38:19;;;;;;;47.25;19.13;;;8.00;99.90;;;;;;5071885;28;20123;-76
2023/02/22 07:40:46;;;;;;;55.17;20.52;;;8.00;99.90;;;;;;5075408;28;20040;-76
2023/02/22 07:43:20;;;;;;;53.13;21.73;;;8.00;99.90;;;;;;5089226;28;20032;-76
2023/02/22 07:45:48;;;;;;;57.80;22.08;;;8.10;99.90;;;;;;5072336;28;20039;-76
2023/02/22 07:48:17;;;;;;;58.55;22.40;;;8.10;99.90;;;;;;5083179;28;20058;-76
2023/02/22 07:50:44;;;;;;;61.33;22.58;;;8.10;99.90;;;;;;5092622;28;20036;-76
2023/02/22 07:53:17;;;;;;;53.85;21.73;;;8.10;99.90;;;;;;5092366;28;20077;-76
2023/02/22 07:55:44;;;;;;;66.25;22.08;;;8.10;99.90;;;;;;5092397;28;20044;-76
2023/02/22 07:58:14;;;;;;;54.45;22.30;;;8.10;99.90;;;;;;5072362;28;20059;-76
2023/02/22 08:00:42;;;;;;;62.95;22.45;;;8.10;99.90;;;;;;5091581;28;20039;-76
2023/02/22 08:03:11;;;;;;;63.88;23.05;;;8.20;99.90;;;;;;5078621;28;20078;-76
2023/02/22 08:05:41;;;;;;;63.72;22.38;;;8.20;99.90;;;;;;5080384;28;20040;-76
2023/02/22 08:08:08;;;;;;;56.40;21.00;;;8.30;99.90;;;;;;5074647;28;20036;-77
2023/02/22 08:10:36;;;;;;;56.75;21.92;;;8.30;99.90;;;;;;5072030;28;20040;-76
2023/02/22 08:13:04;;;;;;;60.15;21.98;;;8.40;99.90;;;;;;5055692;28;20068;-76
2023/02/22 08:15:34;;;;;;;63.72;22.35;;;8.40;99.90;;;;;;5055148;28;20079;-77
2023/02/22 08:18:03;;;;;;;61.17;21.95;;;8.50;99.90;;;;;;5089535;28;20039;-76
2023/02/22 08:20:30;;;;;;;58.70;21.17;;;8.50;99.90;;;;;;5083425;28;20028;-76
2023/02/22 08:22:57;;;;;;;57.60;22.45;;;8.60;99.90;;;;;;5082152;28;20053;-77
2023/02/22 08:25:27;;;;;;;62.85;21.92;;;8.60;99.90;;;;;;5071056;28;20041;-77
2023/02/22 08:28:00;;;;;;;57.08;21.20;;;8.70;99.90;;;;;;5096001;28;20040;-76
2023/02/22 08:30:28;;;;;;;60.65;21.85;;;8.70;99.90;;;;;;5099294;28;20420;-77
2023/02/22 08:32:55;;;;;;;54.22;21.48;;;8.70;99.90;;;;;;5087288;28;20040;-76
2023/02/22 08:35:23;;;;;;;54.15;19.90;;;8.70;99.90;;;;;;5097963;28;20489;-76
2023/02/22 08:37:53;;;;;;;55.45;21.00;;;8.70;99.90;;;;;;5108632;28;20507;-76
2023/02/22 08:40:23;;;;;;;54.70;21.65;;;8.80;99.90;;;;;;5099181;28;20036;-76
2023/02/22 08:42:50;;;;;;;49.92;19.15;;;8.80;99.90;;;;;;5098400;28;20032;-76
2023/02/22 08:45:17;;;;;;;42.45;17.35;;;8.80;99.90;;;;;;5102968;28;20040;-77
2023/02/22 08:47:44;;;;;;;44.58;16.10;;;8.80;99.90;;;;;;5080288;28;20089;-76
2023/02/22 08:50:22;;;;;;;46.65;16.92;;;8.80;99.90;;;;;;5092525;28;20836;-76
2023/02/22 08:52:51;;;;;;;40.83;14.80;;;8.80;99.90;;;;;;5105071;28;20415;-76
2023/02/22 08:55:20;;;;;;;46.35;15.73;;;8.80;99.90;;;;;;5082501;28;20368;-76
2023/02/22 08:57:47;;;;;;;40.55;16.15;;;8.90;99.90;;;;;;5097631;28;20051;-76
2023/02/22 09:00:14;;;;;;;43.28;16.20;;;8.90;99.90;;;;;;5069924;28;20611;-75
2023/02/22 09:02:41;;;;;;;44.67;16.60;;;9.00;99.90;;;;;;5069210;28;20040;-76
2023/02/22 09:05:08;;;;;;;39.20;15.70;;;9.00;99.90;;;;;;5072838;28;20421;-75
2023/02/22 09:07:35;;;;;;;40.60;16.05;;;9.00;99.90;;;;;;5105125;28;20041;-76
2023/02/22 09:10:01;;;;;;;40.88;16.08;;;9.00;99.90;;;;;;5103797;28;20044;-76
2023/02/22 09:12:28;;;;;;;45.33;15.73;;;9.00;99.90;;;;;;5093562;28;20040;-76
2023/02/22 09:14:55;;;;;;;41.28;16.30;;;9.00;99.90;;;;;;5093805;28;20050;-75
2023/02/22 09:17:21;;;;;;;45.25;15.57;;;9.00;99.90;;;;;;5069242;28;20037;-75
2023/02/22 09:19:48;;;;;;;38.38;15.50;;;9.10;99.90;;;;;;5090256;28;20109;-75
2023/02/22 09:22:15;;;;;;;39.70;15.88;;;9.10;99.90;;;;;;5057822;28;20473;-75
2023/02/22 09:24:42;;;;;;;37.47;14.35;;;9.10;99.90;;;;;;5056702;28;20057;-75
2023/02/22 09:27:10;;;;;;;40.05;14.77;;;9.10;99.90;;;;;;5090750;28;20102;-76
2023/02/22 09:29:38;;;;;;;37.90;15.18;;;9.10;99.90;;;;;;5090467;28;20504;-76
2023/02/22 09:32:05;;;;;;;35.78;13.77;;;9.10;99.90;;;;;;5073436;28;20459;-76
2023/02/22 09:34:34;;;;;;;35.50;15.27;;;9.10;99.90;;;;;;5068214;28;20037;-76
2023/02/22 09:37:00;;;;;;;35.00;14.48;;;9.00;99.90;;;;;;5074482;28;20094;-76
2023/02/22 09:39:28;;;;;;;39.08;15.27;;;9.10;99.90;;;;;;5069963;28;20029;-75
2023/02/22 09:42:06;;;;;;;39.78;14.75;;;9.10;99.90;;;;;;5073116;28;20036;-76
2023/02/22 09:44:46;;;;;;;40.50;14.15;;;9.10;99.90;;;;;;5099060;28;20150;-75
2023/02/22 09:47:17;;;;;;;36.55;13.65;;;9.10;99.90;;;;;;5079711;28;20508;-76
2023/02/22 09:50:01;;;;;;;38.20;15.60;;;9.10;99.90;;;;;;5080657;28;20040;-77
2023/02/22 09:52:38;;;;;;;39.78;14.82;;;9.10;99.90;;;;;;5094172;28;20140;-76
2023/02/22 09:55:04;;;;;;;35.90;14.32;;;9.10;99.90;;;;;;5093124;28;20143;-75
2023/02/22 09:57:39;;;;;;;40.25;17.75;;;9.10;99.90;;;;;;5098174;28;20171;-76
2023/02/22 10:00:28;;;;;;;42.42;17.52;;;9.20;99.90;;;;;;5090166;28;20048;-76
2023/02/22 10:02:58;;;;;;;38.45;17.27;;;9.20;99.90;;;;;;5073125;28;20135;-76
2023/02/22 10:05:32;;;;;;;39.58;16.60;;;9.10;99.90;;;;;;5101017;28;20044;-76
2023/02/22 10:08:05;;;;;;;40.50;16.38;;;9.20;99.90;;;;;;5092828;28;20048;-76
2023/02/22 10:10:38;;;;;;;35.40;15.73;;;9.20;99.90;;;;;;5109654;28;20492;-75
2023/02/22 10:13:13;;;;;;;39.42;16.80;;;9.20;99.90;;;;;;5093079;28;20103;-76
2023/02/22 10:16:07;;;;;;;41.95;15.93;;;9.20;99.90;;;;;;5109360;28;20837;-76
2023/02/22 10:18:38;;;;;;;36.60;15.35;;;9.20;99.90;;;;;;5093049;28;20060;-76
2023/02/22 10:21:26;;;;;;;40.75;15.32;;;9.20;99.90;;;;;;5093221;28;20452;-75
2023/02/22 10:24:37;;;;;;;44.55;16.42;;;9.20;99.90;;;;;;5108863;28;20496;-76
2023/02/22 10:27:09;;;;;;;38.15;15.20;;;9.20;99.90;;;;;;5040662;28;20077;-76
2023/02/22 10:29:41;;;;;;;41.80;16.13;;;9.30;99.90;;;;;;5109533;28;20473;-76
2023/02/22 10:32:30;;;;;;;43.80;16.45;;;9.20;99.90;;;;;;5092692;28;20040;-76
2023/02/22 10:34:58;;;;;;;46.70;16.88;;;9.30;99.90;;;;;;5092489;28;20153;-76
2023/02/22 10:37:31;;;;;;;50.53;17.90;;;9.20;99.90;;;;;;5071442;28;20047;-75
2023/02/22 10:40:10;;;;;;;43.17;15.77;;;9.30;99.90;;;;;;5088635;28;20032;-75
2023/02/22 10:42:37;;;;;;;50.92;18.52;;;9.30;99.90;;;;;;5088762;28;20469;-76
2023/02/22 10:45:05;;;;;;;52.85;19.85;;;9.30;99.90;;;;;;5073225;28;20075;-76
2023/02/22 10:47:33;;;;;;;49.03;19.67;;;9.30;99.90;;;;;;5079533;28;20122;-76
2023/02/22 10:50:00;;;;;;;49.75;19.25;;;9.30;99.90;;;;;;5073165;28;20074;-76
2023/02/22 10:52:35;;;;;;;49.63;20.27;;;9.30;99.90;;;;;;5071633;28;20044;-76
2023/02/22 10:55:05;;;;;;;49.65;19.25;;;9.30;99.90;;;;;;5088858;28;20048;-76
2023/02/22 10:57:35;;;;;;;48.70;19.73;;;9.30;99.90;;;;;;5040894;28;20048;-75
2023/02/22 11:00:29;;;;;;;48.10;20.08;;;9.40;99.90;;;;;;5088993;28;20040;-75
2023/02/22 11:03:01;;;;;;;52.08;20.48;;;9.30;99.90;;;;;;5072553;28;20047;-76
2023/02/22 11:05:37;;;;;;;53.05;20.95;;;9.30;99.90;;;;;;5072878;28;20439;-76
2023/02/22 11:08:33;;;;;;;54.28;21.10;;;9.40;99.90;;;;;;5072366;28;20044;-75
2023/02/22 11:11:03;;;;;;;51.92;21.17;;;9.30;99.90;;;;;;5072735;28;20139;-76
2023/02/22 11:13:36;;;;;;;55.38;21.83;;;9.30;99.90;;;;;;5101635;28;20040;-76
2023/02/22 11:16:19;;;;;;;53.25;20.08;;;9.20;99.90;;;;;;5109028;28;20044;-76
2023/02/22 11:18:49;;;;;;;52.83;20.75;;;9.20;99.90;;;;;;5092535;28;20070;-76
2023/02/22 11:21:21;;;;;;;49.25;21.20;;;9.20;99.90;;;;;;5076053;28;20059;-75
2023/02/22 11:23:49;;;;;;;52.20;21.30;;;9.30;99.90;;;;;;5094248;28;20056;-76
2023/02/22 11:26:19;;;;;;;56.80;21.38;;;9.30;99.90;;;;;;5072862;28;20135;-76
2023/02/22 11:28:54;;;;;;;55.20;21.02;;;9.30;99.90;;;;;;5072245;28;20052;-76
2023/02/22 11:31:26;;;;;;;56.95;21.63;;;9.40;99.90;;;;;;5072389;28;20542;-76
2023/02/22 11:33:58;;;;;;;56.08;21.45;;;9.40;99.90;;;;;;5073620;28;20048;-76
2023/02/22 11:36:39;;;;;;;60.85;22.48;;;9.40;99.90;;;;;;5072017;28;20036;-75
2023/02/22 11:39:20;;;;;;;56.13;21.98;;;9.40;99.90;;;;;;5088133;28;20094;-76
2023/02/22 11:41:50;;;;;;;59.25;22.15;;;9.40;99.90;;;;;;5072207;28;20040;-75
2023/02/22 11:44:22;;;;;;;57.13;22.27;;;9.40;99.90;;;;;;5072253;28;20076;-76
2023/02/22 11:46:50;;;;;;;57.45;22.27;;;9.50;99.90;;;;;;5088379;28;20044;-75
2023/02/22 11:49:18;;;;;;;50.53;20.80;;;9.50;99.90;;;;;;5072297;28;20036;-76
2023/02/22 11:52:08;;;;;;;49.35;21.05;;;9.60;99.90;;;;;;5078895;28;20093;-76
2023/02/22 11:54:51;;;;;;;51.10;20.80;;;9.60;99.90;;;;;;5108941;28;20048;-76
2023/02/22 11:58:01;;;;;;;54.28;20.60;;;9.70;99.90;;;;;;5092152;28;20048;-76
2023/02/22 12:00:43;;;;;;;52.17;20.30;;;9.70;99.90;;;;;;5107567;28;20400;-76
2023/02/22 12:03:26;;;;;;;49.63;19.85;;;9.70;99.90;;;;;;5108393;28;20040;-76
2023/02/22 12:06:18;;;;;;;58.28;21.85;;;9.70;99.90;;;;;;5091583;28;20044;-76
2023/02/22 12:08:52;;;;;;;56.13;22.35;;;9.70;99.90;;;;;;5108472;28;20130;-75
2023/02/22 12:11:22;;;;;;;57.80;24.42;;;9.70;99.90;;;;;;5091717;28;20182;-76
2023/02/22 12:14:08;;;;;;;63.60;24.20;;;9.70;99.90;;;;;;5091156;28;20134;-76
2023/02/22 12:16:44;;;;;;;60.53;24.02;;;9.70;99.90;;;;;;5110475;28;20090;-75
2023/02/22 12:19:32;;;;;;;62.08;23.27;;;9.60;99.90;;;;;;5128565;28;20041;-75
2023/02/22 12:22:07;;;;;;;56.67;23.30;;;9.60;99.90;;;;;;5074796;28;20102;-76
2023/02/22 12:24:49;;;;;;;60.67;23.88;;;9.60;99.90;;;;;;5088130;28;20060;-76
2023/02/22 12:27:26;;;;;;;59.17;23.20;;;9.50;99.90;;;;;;5071797;28;20524;-76
2023/02/22 12:30:03;;;;;;;54.05;22.98;;;9.50;99.90;;;;;;5071468;28;20098;-76
2023/02/22 12:32:45;;;;;;;61.67;24.33;;;9.50;99.90;;;;;;5091448;28;20040;-76
2023/02/22 12:35:21;;;;;;;55.42;23.55;;;9.60;99.90;;;;;;5107766;28;20590;-76
2023/02/22 12:38:06;;;;;;;59.80;24.80;;;9.60;99.90;;;;;;5108361;28;20040;-76
2023/02/22 12:40:52;;;;;;;68.93;24.13;;;9.60;99.90;;;;;;5096499;28;20503;-76
2023/02/22 12:43:50;;;;;;;60.17;24.48;;;9.60;99.90;;;;;;5095891;28;20048;-75
2023/02/22 12:46:19;;;;;;;60.45;23.52;;;9.60;99.90;;;;;;5084266;28;20101;-76
2023/02/22 12:49:33;;;;;;;66.07;23.95;;;9.60;99.90;;;;;;5085726;28;20104;-76
2023/02/22 12:52:03;;;;;;;65.30;23.92;;;9.70;99.90;;;;;;5053908;28;20063;-76
2023/02/22 12:54:52;;;;;;;65.63;26.05;;;9.70;99.90;;;;;;5082697;28;20569;-76
2023/02/22 12:57:35;;;;;;;67.07;23.75;;;9.70;99.90;;;;;;5094286;28;20050;-76
2023/02/22 13:00:25;;;;;;;58.50;24.33;;;9.70;99.90;;;;;;5098870;28;20059;-76